Have a Safe July 4th! 

Flight Track Log - Related Links

Times and Time Zones

All times are in EDT time to prevent confusion due to time zone crossing. See the AWE1253 flight status page for this flight to view local times or setup timezone preferences in your user account.

Time Position Orientation Groundspeed Altitude Reporting Facility
EDT Latitude Longitude Course Direction KTS MPH feet Rate Location/Type
Sat 08:44:07 PM 39.8592 -75.2794 221° Southwest 158 182 900  Level FAA TRACON SMA TRACON (SMA)
Sat 08:44:26 PM 39.8475 -75.2928 221° Southwest 177 204 1,700 1,950 Climbing FAA TRACON SMA TRACON (SMA)
Sat 08:44:47 PM 39.8311 -75.3056 211° Southwest 198 228 2,200 1,950 Climbing FAA TRACON SMA TRACON (SMA)
Sat 08:45:06 PM 39.8142 -75.3203 214° Southwest 215 247 3,000 2,462 Climbing FAA TRACON SMA TRACON (SMA)
Sat 08:45:26 PM 39.7975 -75.3344 213° Southwest 226 260 3,800 2,700 Climbing FAA TRACON SMA TRACON (SMA)
Sat 08:45:46 PM 39.7758 -75.3519 212° Southwest 257 296 4,800 3,150 Climbing FAA TRACON SMA TRACON (SMA)
Sat 08:46:06 PM 39.7539 -75.3667 207° Southwest 266 306 5,900 3,300 Climbing FAA TRACON SMA TRACON (SMA)
Sat 08:46:26 PM 39.7311 -75.3689 184° South 274 315 7,000 3,000 Climbing FAA TRACON SMA TRACON (SMA)
Sat 08:46:46 PM 39.7075 -75.3697 182° South 273 314 7,900 3,000 Climbing FAA TRACON SMA TRACON (SMA)
Sat 08:47:06 PM 39.6769 -75.3706 181° South 284 327 9,000 3,300 Climbing FAA TRACON SMA TRACON (SMA)
Sat 08:47:26 PM 39.6517 -75.3714 181° South 290 334 10,100 2,927 Climbing FAA TRACON SMA TRACON (SMA)
Sat 08:47:47 PM 39.6203 -75.3722 181° South 292 336 11,000 2,100 Climbing FAA TRACON SMA TRACON (SMA)
Sat 08:48:06 PM 39.5931 -75.3731 181° South 316 364 11,500 1,650 Climbing FAA TRACON SMA TRACON (SMA)
Sat 08:48:27 PM 39.5647 -75.3736 181° South 332 382 12,100 2,550 Climbing FAA TRACON SMA TRACON (SMA)
Sat 08:48:46 PM 39.5283 -75.3742 181° South 337 388 13,200 3,150 Climbing FAA TRACON SMA TRACON (SMA)
Sat 08:49:07 PM 39.4992 -75.3750 181° South 338 389 14,200 2,700 Climbing FAA TRACON SMA TRACON (SMA)
Sat 08:49:26 PM 39.4703 -75.3744 179° South 339 390 15,000 2,250 Climbing FAA TRACON SMA TRACON (SMA)
Sat 08:49:47 PM 39.4336 -75.3756 181° South 342 394 15,700 1,650 Climbing FAA TRACON SMA TRACON (SMA)
Sat 08:50:06 PM 39.4033 -75.3767 182° South 347 399 16,100 923 Climbing FAA TRACON SMA TRACON (SMA)
Sat 08:50:26 PM 39.3736 -75.3775 181° South 348 400 16,300 900 Climbing FAA TRACON SMA TRACON (SMA)
Sat 08:50:46 PM 39.3356 -75.3783 181° South 351 404 16,700 1,050 Climbing FAA TRACON SMA TRACON (SMA)
Sat 08:51:06 PM 39.3050 -75.3789 181° South 352 405 17,000 600 Climbing FAA TRACON SMA TRACON (SMA)
Sat 08:51:26 PM 39.2747 -75.3792 180° South 353 406 17,100 150 Climbing FAA TRACON SMA TRACON (SMA)
Sat 08:51:46 PM 39.2442 -75.3797 181° South 354 407 17,100  Level FAA TRACON SMA TRACON (SMA)
Sat 08:52:26 PM 39.2442 -75.3797 207° Southwest 354 407 17,100 1,095 Level FAA TRACON SMA TRACON (SMA)
Sat 08:54:03 PM 39.0278 -75.4072 186° South 352 405 19,600 1,796 Climbing Washington Center
Sat 08:55:03 PM 38.9256 -75.4236 187° South 352 405 21,800 2,100 Climbing Washington Center
Sat 08:56:03 PM 38.8278 -75.4425 189° South 357 411 23,800 1,950 Climbing Washington Center
Sat 08:57:03 PM 38.7214 -75.4558 186° South 371 427 25,700 2,600 Climbing Washington Center
Sat 08:58:03 PM 38.6256 -75.4694 186° South 371 427 29,000 2,150 Climbing Washington Center
Sat 08:59:03 PM 38.5297 -75.4856 187° South 359 413 30,000 550 Climbing Washington Center
Sat 09:00:03 PM 38.4336 -75.4989 186° South 354 407 30,100 750 Climbing Washington Center
Sat 09:01:03 PM 38.3400 -75.5256 193° South 349 402 31,500 1,350 Climbing Washington Center
Sat 09:02:03 PM 38.2564 -75.5892 211° Southwest 349 402 32,800 1,250 Climbing Washington Center
Sat 09:03:03 PM 38.1814 -75.6631 218° Southwest 344 396 34,000 1,350 Climbing Washington Center
Sat 09:04:03 PM 38.1083 -75.7317 216° Southwest 344 396 35,500 1,350 Climbing Washington Center
Sat 09:05:03 PM 38.0333 -75.8131 221° Southwest 339 390 36,700 1,000 Climbing Washington Center
Sat 09:06:03 PM 37.9642 -75.8683 212° Southwest 328 377 37,500 650 Climbing Washington Center
Sat 09:07:03 PM 37.8953 -75.9339 217° Southwest 328 377 38,000 250 Climbing Washington Center
Sat 09:08:03 PM 37.8178 -76.0122 219° Southwest 323 372 38,000  Level Washington Center
Sat 09:09:03 PM 37.7467 -76.0828 218° Southwest 323 372 38,000  Level Washington Center
Sat 09:10:03 PM 37.6756 -76.1506 217° Southwest 323 372 38,000  Level Washington Center
Sat 09:11:03 PM 37.6022 -76.2131 214° Southwest 323 372 38,000  Level Washington Center
Sat 09:12:03 PM 37.5289 -76.2831 217° Southwest 323 372 38,000  Level Washington Center
Sat 09:13:03 PM 37.4575 -76.3478 216° Southwest 323 372 38,000  Level Washington Center
Sat 09:14:03 PM 37.3842 -76.4178 217° Southwest 323 372 38,000  Level Washington Center
Sat 09:15:03 PM 37.3128 -76.4822 216° Southwest 323 372 38,000  Level Washington Center
Sat 09:16:03 PM 37.2369 -76.5519 216° Southwest 323 372 38,000  Level Washington Center
Sat 09:17:03 PM 37.1633 -76.6214 217° Southwest 323 372 38,000  Level Washington Center
Sat 09:18:03 PM 37.0919 -76.6881 217° Southwest 323 372 38,000  Level Washington Center
Sat 09:19:03 PM 37.0183 -76.7572 217° Southwest 328 377 38,000  Level Washington Center
Sat 09:20:03 PM 36.9403 -76.8289 216° Southwest 333 383 38,000  Level Washington Center
Sat 09:21:03 PM 36.8644 -76.8978 216° Southwest 333 383 38,000  Level Washington Center
Sat 09:22:03 PM 36.7908 -76.9664 217° Southwest 338 389 38,000 -50 Level Washington Center
Sat 09:23:03 PM 36.7150 -77.0350 216° Southwest 338 389 37,900 -50 Descending Washington Center
Sat 09:24:03 PM 36.6389 -77.1061 217° Southwest 338 389 37,900 50 Level Washington Center
Sat 09:25:03 PM 36.5628 -77.1744 216° Southwest 338 389 38,000 50 Climbing Washington Center
Sat 09:26:03 PM 36.4867 -77.2478 218° Southwest 343 395 38,000  Level Washington Center
Sat 09:27:03 PM 36.4086 -77.3186 216° Southwest 348 400 38,000  Level Washington Center
Sat 09:28:03 PM 36.3325 -77.3839 215° Southwest 348 400 38,000  Level Washington Center
Sat 09:29:03 PM 36.2542 -77.4569 217° Southwest 348 400 38,000  Level Washington Center
Sat 09:30:03 PM 36.1886 -77.5169 216° Southwest 340 391 38,000  Level Washington Center
Sat 09:31:03 PM 36.1103 -77.5844 215° Southwest 345 397 38,000  Level Washington Center
Sat 09:32:03 PM 36.0319 -77.6544 216° Southwest 351 404 38,000  Level Washington Center
Sat 09:33:03 PM 35.9514 -77.7319 218° Southwest 356 410 38,000 50 Level Washington Center
Sat 09:34:03 PM 35.8728 -77.8067 218° Southwest 361 415 38,100  Climbing Washington Center
Sat 09:35:03 PM 35.7919 -77.8814 217° Southwest 366 421 38,000 -50 Descending Washington Center
Sat 09:36:03 PM 35.7133 -77.9558 218° Southwest 366 421 38,000  Level Washington Center
Sat 09:37:03 PM 35.6367 -78.0303 218° Southwest 366 421 38,000  Level Washington Center
Sat 09:38:03 PM 35.5603 -78.0994 216° Southwest 361 415 38,000  Level Washington Center
Sat 09:39:03 PM 35.4814 -78.1733 217° Southwest 361 415 38,000  Level Washington Center
Sat 09:40:03 PM 35.3961 -78.2547 218° Southwest 361 415 38,000  Level Washington Center
Sat 09:41:03 PM 35.3172 -78.3283 217° Southwest 361 415 38,000  Level Washington Center
Sat 09:42:03 PM 35.2383 -78.4019 217° Southwest 355 409 38,000  Level Washington Center
Sat 09:43:03 PM 35.1617 -78.4756 218° Southwest 355 409 38,000  Level Washington Center
Sat 09:44:03 PM 35.0847 -78.5489 218° Southwest 360 414 38,000  Level Washington Center
Sat 09:46:20 PM 34.9122 -78.7081 217° Southwest 365 420 38,000  Level Jacksonville Center
Sat 09:47:20 PM 34.8333 -78.7803 217° Southwest 365 420 38,000  Level Jacksonville Center
Sat 09:48:20 PM 34.7564 -78.8522 218° Southwest 365 420 38,000  Level Jacksonville Center
Sat 09:49:20 PM 34.6775 -78.9267 218° Southwest 365 420 38,000  Level Jacksonville Center
Sat 09:50:20 PM 34.5983 -78.9983 217° Southwest 365 420 38,000  Level Jacksonville Center
Sat 09:51:20 PM 34.5192 -79.0725 218° Southwest 365 420 38,000  Level Jacksonville Center
Sat 09:52:20 PM 34.4381 -79.1514 219° Southwest 365 420 38,000  Level Jacksonville Center
Sat 09:53:20 PM 34.3569 -79.2256 217° Southwest 365 420 38,000  Level Jacksonville Center
Sat 09:54:20 PM 34.2775 -79.2992 217° Southwest 365 420 38,000 -50 Level Jacksonville Center
Sat 09:55:20 PM 34.1942 -79.3728 216° Southwest 365 420 37,900  Descending Jacksonville Center
Sat 09:56:20 PM 34.1108 -79.4489 217° Southwest 365 420 38,000 50 Climbing Jacksonville Center
Sat 09:57:20 PM 34.0292 -79.5197 216° Southwest 359 413 38,000  Level Jacksonville Center
Sat 09:58:20 PM 33.9478 -79.5956 218° Southwest 365 420 38,000  Level Jacksonville Center
Sat 09:59:20 PM 33.8642 -79.6686 216° Southwest 365 420 38,000  Level Jacksonville Center
Sat 10:00:20 PM 33.7844 -79.7417 217° Southwest 365 420 38,000  Level Jacksonville Center
Sat 10:01:20 PM 33.7028 -79.8144 217° Southwest 370 426 38,000  Level Jacksonville Center
Sat 10:02:20 PM 33.6233 -79.8869 217° Southwest 370 426 38,000  Level Jacksonville Center
Sat 10:03:20 PM 33.5436 -79.9594 217° Southwest 370 426 38,000  Level Jacksonville Center
Sat 10:04:20 PM 33.4639 -80.0319 217° Southwest 370 426 38,000  Level Jacksonville Center
Sat 10:05:20 PM 33.3839 -80.1017 216° Southwest 365 420 38,000  Level Jacksonville Center
Sat 10:06:20 PM 33.3042 -80.1736 217° Southwest 365 420 38,000  Level Jacksonville Center
Sat 10:07:20 PM 33.2264 -80.2431 217° Southwest 365 420 38,000  Level Jacksonville Center
Sat 10:08:20 PM 33.1444 -80.3125 215° Southwest 372 428 38,000  Level Jacksonville Center
Sat 10:09:20 PM 33.0622 -80.3842 216° Southwest 371 427 38,000  Level Jacksonville Center
Sat 10:10:20 PM 32.9864 -80.4533 217° Southwest 379 436 38,000  Level Jacksonville Center
Sat 10:11:20 PM 32.9064 -80.5222 216° Southwest 379 436 38,000  Level Jacksonville Center
Sat 10:12:20 PM 32.8242 -80.5911 215° Southwest 374 430 38,000  Level Jacksonville Center
Sat 10:13:20 PM 32.7419 -80.6622 216° Southwest 374 430 38,000  Level Jacksonville Center
Sat 10:14:20 PM 32.6597 -80.7336 216° Southwest 374 430 38,000  Level Jacksonville Center
Sat 10:15:20 PM 32.5794 -80.8044 217° Southwest 379 436 38,000 -50 Level Jacksonville Center
Sat 10:16:20 PM 32.4950 -80.8778 216° Southwest 379 436 37,900  Descending Jacksonville Center
Sat 10:17:20 PM 32.4106 -80.9536 217° Southwest 374 430 38,000 50 Climbing Jacksonville Center
Sat 10:18:20 PM 32.3383 -81.0164 216° Southwest 361 415 38,000  Level Jacksonville Center
Sat 10:19:20 PM 32.2517 -81.0869 215° Southwest 374 430 38,000 -50 Level Jacksonville Center
Sat 10:20:20 PM 32.1692 -81.1575 216° Southwest 380 437 37,900 -50 Descending Jacksonville Center
Sat 10:21:20 PM 32.0889 -81.2250 215° Southwest 375 432 37,900 50 Level Jacksonville Center
Sat 10:22:20 PM 32.0061 -81.2953 216° Southwest 375 432 38,000 50 Climbing Jacksonville Center
Sat 10:23:20 PM 31.9256 -81.3653 216° Southwest 375 432 38,000  Level Jacksonville Center
Sat 10:24:20 PM 31.8450 -81.4350 216° Southwest 370 426 38,000  Level Jacksonville Center
Sat 10:25:20 PM 31.7539 -81.5122 216° Southwest 370 426 38,000  Level Jacksonville Center
Sat 10:26:20 PM 31.6733 -81.5817 216° Southwest 377 434 38,000  Level Jacksonville Center
Sat 10:27:20 PM 31.5925 -81.6364 210° Southwest 377 434 38,000  Level Jacksonville Center
Sat 10:28:20 PM 31.4800 -81.6769 197° South 377 434 38,000  Level Jacksonville Center
Sat 10:29:20 PM 31.3906 -81.7097 197° South 385 443 38,000  Level Jacksonville Center
Sat 10:30:20 PM 31.2783 -81.7525 198° South 385 443 38,000  Level Jacksonville Center
Sat 10:31:20 PM 31.1783 -81.7903 198° South 380 437 38,000 -50 Level Jacksonville Center
Sat 10:32:20 PM 31.0806 -81.8253 197° South 378 435 37,900  Descending Jacksonville Center
Sat 10:33:20 PM 30.9806 -81.8603 197° South 378 435 38,000 50 Climbing Jacksonville Center
Sat 10:34:20 PM 30.8806 -81.8978 198° South 378 435 38,000  Level Jacksonville Center
Sat 10:35:20 PM 30.7828 -81.9325 197° South 378 435 38,000  Level Jacksonville Center
Sat 10:36:20 PM 30.6850 -81.9675 197° South 378 435 38,000  Level Jacksonville Center
Sat 10:37:20 PM 30.5953 -82.0019 198° South 373 429 38,000  Level Jacksonville Center
Sat 10:38:20 PM 30.4953 -82.0294 193° South 373 429 38,000 -50 Level Jacksonville Center
Sat 10:39:20 PM 30.3975 -82.0667 198° South 373 429 37,900  Descending Jacksonville Center
Sat 10:40:20 PM 30.2994 -82.1011 197° South 378 435 38,000 50 Climbing Jacksonville Center
Sat 10:41:20 PM 30.1994 -82.1378 198° South 378 435 38,000 -350 Level Jacksonville Center
Sat 10:42:20 PM 30.0994 -82.1722 197° South 378 435 37,300 -1,150 Descending Jacksonville Center
Sat 10:43:20 PM 30.0017 -82.2139 200° South 378 435 35,700 -1,850 Descending Jacksonville Center
Sat 10:44:20 PM 29.9017 -82.2506 198° South 383 441 33,600 -2,150 Descending Jacksonville Center
Sat 10:45:20 PM 29.8078 -82.2822 196° South 372 428 31,400 -8,300 Descending Jacksonville Center
Sat 10:46:20 PM 29.7139 -82.3114 195° South 362 417 17,000 -3,650 Descending Jacksonville Center
Sat 10:47:20 PM 29.6139 -82.3478 198° South 362 417 24,100 2,300 Climbing Jacksonville Center
Sat 10:48:20 PM 29.5053 -82.3486 180° South 375 432 21,600 -2,400 Descending Jacksonville Center
Sat 10:49:20 PM 29.3925 -82.3347 174° South 388 447 19,300 -2,150 Descending Jacksonville Center
Sat 10:50:20 PM 29.2883 -82.3236 175° South 388 447 17,300 -2,000 Descending Jacksonville Center
Sat 10:51:20 PM 29.1858 -82.3097 173° South 378 435 15,300 -1,700 Descending Jacksonville Center
Sat 10:52:20 PM 29.0856 -82.3008 176° South 373 429 13,900 -1,150 Descending Jacksonville Center
Sat 10:53:20 PM 28.9894 -82.2850 172° South 362 417 13,000 -450 Descending Jacksonville Center
Sat 10:54:20 PM 28.8789 -82.2761 176° South 362 417 13,000 -181 Level Jacksonville Center
Sat 10:56:39 PM 28.6500 -82.2500 174° South 350 403 12,400 -633 Descending Tampa TRACON
Sat 10:57:39 PM 28.5667 -82.2500 180° South 348 400 10,900 -700 Descending Tampa TRACON
Sat 10:58:39 PM 28.4667 -82.2500 180° South 347 399 11,000  Climbing Tampa TRACON
Sat 10:59:45 PM 28.3500 -82.2833 194° South 338 389 10,900 -400 Descending Tampa TRACON
Sat 11:00:39 PM 28.2833 -82.3167 204° Southwest 310 357 10,200 -1,105 Descending Tampa TRACON
Sat 11:01:39 PM 28.2167 -82.3500 204° Southwest 284 327 8,800 -1,500 Descending Tampa TRACON
Sat 11:02:39 PM 28.1333 -82.3667 190° South 276 318 7,200 -1,500 Descending Tampa TRACON
Sat 11:03:39 PM 28.0667 -82.3833 192° South 269 310 5,800 -950 Descending Tampa TRACON
Sat 11:04:39 PM 28.0000 -82.4167 204° Southwest 264 304 5,300 -950 Descending Tampa TRACON
Sat 11:05:39 PM 27.9167 -82.4167 180° South 261 300 3,900 -1,150 Descending Tampa TRACON
Sat 11:06:39 PM 27.8500 -82.4333 192° South 246 283 3,000 -450 Descending Tampa TRACON
Sat 11:07:39 PM 27.7833 -82.4333 180° South 216 249 3,000 -200 Level Tampa TRACON
Sat 11:08:39 PM 27.7667 -82.4833 249° West 193 222 2,600 -200 Descending Tampa TRACON
Sat 11:09:39 PM 27.7833 -82.5333 291° West 193 222 2,600  Level Tampa TRACON

Login

Don't have an account? Register now (free) for customized features, flight alerts, and more!